sensor_id;sensor_type;location;lat;lon;timestamp;P1;durP1;ratioP1;P2;durP2;ratioP2
68275;SDS011;55106;51.438;-0.098;2022-09-20T00:00:23;8.30;;;4.10;;
68275;SDS011;55106;51.438;-0.098;2022-09-20T00:02:48;9.43;;;4.50;;
68275;SDS011;55106;51.438;-0.098;2022-09-20T00:05:14;9.87;;;4.80;;
68275;SDS011;55106;51.438;-0.098;2022-09-20T00:07:42;9.10;;;4.60;;
68275;SDS011;55106;51.438;-0.098;2022-09-20T00:10:08;9.65;;;4.72;;
68275;SDS011;55106;51.438;-0.098;2022-09-20T00:12:34;8.97;;;4.13;;
68275;SDS011;55106;51.438;-0.098;2022-09-20T00:14:59;10.80;;;4.53;;
68275;SDS011;55106;51.438;-0.098;2022-09-20T00:17:25;10.23;;;4.43;;
68275;SDS011;55106;51.438;-0.098;2022-09-20T00:19:50;10.00;;;4.90;;
68275;SDS011;55106;51.438;-0.098;2022-09-20T00:22:15;9.25;;;4.60;;
68275;SDS011;55106;51.438;-0.098;2022-09-20T00:24:41;8.73;;;4.40;;
68275;SDS011;55106;51.438;-0.098;2022-09-20T00:27:06;9.80;;;4.93;;
68275;SDS011;55106;51.438;-0.098;2022-09-20T00:29:32;8.90;;;4.93;;
68275;SDS011;55106;51.438;-0.098;2022-09-20T00:31:57;10.10;;;5.25;;
68275;SDS011;55106;51.438;-0.098;2022-09-20T00:34:22;10.00;;;5.00;;
68275;SDS011;55106;51.438;-0.098;2022-09-20T00:37:06;10.45;;;5.03;;
68275;SDS011;55106;51.438;-0.098;2022-09-20T00:39:31;9.67;;;5.00;;
68275;SDS011;55106;51.438;-0.098;2022-09-20T00:41:57;9.10;;;5.40;;
68275;SDS011;55106;51.438;-0.098;2022-09-20T00:47:27;8.57;;;5.03;;
68275;SDS011;55106;51.438;-0.098;2022-09-20T00:53:01;10.10;;;5.57;;
68275;SDS011;55106;51.438;-0.098;2022-09-20T00:55:32;9.13;;;5.03;;
68275;SDS011;55106;51.438;-0.098;2022-09-20T00:58:00;9.45;;;5.00;;
68275;SDS011;55106;51.438;-0.098;2022-09-20T01:00:25;8.80;;;5.07;;
68275;SDS011;55106;51.438;-0.098;2022-09-20T01:02:52;10.87;;;6.40;;
68275;SDS011;55106;51.438;-0.098;2022-09-20T01:05:23;9.75;;;5.20;;
68275;SDS011;55106;51.438;-0.098;2022-09-20T01:07:49;8.98;;;5.40;;
68275;SDS011;55106;51.438;-0.098;2022-09-20T01:10:16;12.55;;;5.70;;
68275;SDS011;55106;51.438;-0.098;2022-09-20T01:12:42;11.87;;;5.40;;
68275;SDS011;55106;51.438;-0.098;2022-09-20T01:15:10;10.48;;;5.07;;
68275;SDS011;55106;51.438;-0.098;2022-09-20T01:17:38;10.00;;;5.10;;
68275;SDS011;55106;51.438;-0.098;2022-09-20T01:28:12;9.00;;;5.07;;
68275;SDS011;55106;51.438;-0.098;2022-09-20T01:30:41;10.57;;;5.38;;
68275;SDS011;55106;51.438;-0.098;2022-09-20T01:33:16;9.90;;;5.30;;
68275;SDS011;55106;51.438;-0.098;2022-09-20T01:35:44;8.63;;;5.28;;
68275;SDS011;55106;51.438;-0.098;2022-09-20T01:46:27;9.73;;;5.60;;
68275;SDS011;55106;51.438;-0.098;2022-09-20T01:49:08;9.82;;;5.13;;
68275;SDS011;55106;51.438;-0.098;2022-09-20T02:00:09;11.73;;;5.47;;
68275;SDS011;55106;51.438;-0.098;2022-09-20T02:11:10;9.85;;;5.43;;
68275;SDS011;55106;51.438;-0.098;2022-09-20T02:25:13;11.70;;;5.88;;
68275;SDS011;55106;51.438;-0.098;2022-09-20T02:38:58;12.23;;;6.13;;
68275;SDS011;55106;51.438;-0.098;2022-09-20T02:49:55;9.48;;;5.68;;
68275;SDS011;55106;51.438;-0.098;2022-09-20T02:55:33;12.17;;;5.37;;
68275;SDS011;55106;51.438;-0.098;2022-09-20T03:00:53;9.93;;;5.55;;
68275;SDS011;55106;51.438;-0.098;2022-09-20T03:08:54;10.43;;;5.97;;
68275;SDS011;55106;51.438;-0.098;2022-09-20T03:11:34;9.65;;;5.00;;
68275;SDS011;55106;51.438;-0.098;2022-09-20T03:16:44;8.27;;;5.15;;
68275;SDS011;55106;51.438;-0.098;2022-09-20T03:22:02;9.47;;;4.90;;
68275;SDS011;55106;51.438;-0.098;2022-09-20T03:27:28;8.25;;;4.78;;
68275;SDS011;55106;51.438;-0.098;2022-09-20T03:30:31;8.48;;;4.63;;
68275;SDS011;55106;51.438;-0.098;2022-09-20T03:38:51;9.55;;;5.05;;
68275;SDS011;55106;51.438;-0.098;2022-09-20T03:41:39;8.77;;;4.68;;
68275;SDS011;55106;51.438;-0.098;2022-09-20T03:46:54;10.43;;;4.60;;
68275;SDS011;55106;51.438;-0.098;2022-09-20T03:57:58;9.52;;;5.22;;
68275;SDS011;55106;51.438;-0.098;2022-09-20T04:17:27;11.90;;;4.80;;
68275;SDS011;55106;51.438;-0.098;2022-09-20T04:22:49;12.98;;;5.60;;
68275;SDS011;55106;51.438;-0.098;2022-09-20T04:25:20;12.23;;;5.72;;
68275;SDS011;55106;51.438;-0.098;2022-09-20T04:27:56;11.70;;;5.75;;
68275;SDS011;55106;51.438;-0.098;2022-09-20T04:30:26;11.20;;;5.60;;
68275;SDS011;55106;51.438;-0.098;2022-09-20T04:33:09;11.48;;;5.50;;
68275;SDS011;55106;51.438;-0.098;2022-09-20T04:38:35;9.40;;;5.00;;
68275;SDS011;55106;51.438;-0.098;2022-09-20T04:41:07;10.60;;;5.37;;
68275;SDS011;55106;51.438;-0.098;2022-09-20T05:01:22;10.23;;;5.22;;
68275;SDS011;55106;51.438;-0.098;2022-09-20T05:11:26;9.38;;;5.13;;
68275;SDS011;55106;51.438;-0.098;2022-09-20T05:28:05;10.45;;;5.32;;
68275;SDS011;55106;51.438;-0.098;2022-09-20T05:33:42;11.27;;;5.40;;
68275;SDS011;55106;51.438;-0.098;2022-09-20T05:36:17;10.57;;;5.07;;
68275;SDS011;55106;51.438;-0.098;2022-09-20T05:38:58;10.98;;;5.13;;
68275;SDS011;55106;51.438;-0.098;2022-09-20T05:44:10;11.25;;;5.60;;
68275;SDS011;55106;51.438;-0.098;2022-09-20T05:46:47;10.75;;;5.40;;
68275;SDS011;55106;51.438;-0.098;2022-09-20T05:57:38;13.75;;;5.95;;
68275;SDS011;55106;51.438;-0.098;2022-09-20T06:00:08;15.73;;;6.20;;
68275;SDS011;55106;51.438;-0.098;2022-09-20T06:15:59;10.10;;;5.90;;
68275;SDS011;55106;51.438;-0.098;2022-09-20T06:18:37;13.73;;;6.43;;
68275;SDS011;55106;51.438;-0.098;2022-09-20T06:24:04;12.88;;;6.00;;
68275;SDS011;55106;51.438;-0.098;2022-09-20T06:26:58;14.52;;;6.60;;
68275;SDS011;55106;51.438;-0.098;2022-09-20T06:29:29;11.67;;;6.03;;
68275;SDS011;55106;51.438;-0.098;2022-09-20T06:31:57;15.18;;;6.43;;
68275;SDS011;55106;51.438;-0.098;2022-09-20T06:34:22;14.37;;;6.47;;
68275;SDS011;55106;51.438;-0.098;2022-09-20T06:40:53;11.30;;;6.03;;
68275;SDS011;55106;51.438;-0.098;2022-09-20T06:43:25;11.43;;;6.35;;
68275;SDS011;55106;51.438;-0.098;2022-09-20T06:45:51;12.10;;;6.93;;
68275;SDS011;55106;51.438;-0.098;2022-09-20T06:48:17;14.20;;;7.50;;
68275;SDS011;55106;51.438;-0.098;2022-09-20T06:50:43;13.07;;;6.32;;
68275;SDS011;55106;51.438;-0.098;2022-09-20T06:53:10;13.40;;;6.80;;
68275;SDS011;55106;51.438;-0.098;2022-09-20T06:55:40;11.98;;;6.50;;
68275;SDS011;55106;51.438;-0.098;2022-09-20T06:58:08;11.10;;;6.60;;
68275;SDS011;55106;51.438;-0.098;2022-09-20T07:00:34;12.27;;;6.23;;
68275;SDS011;55106;51.438;-0.098;2022-09-20T07:03:00;13.10;;;6.95;;
68275;SDS011;55106;51.438;-0.098;2022-09-20T07:05:25;9.50;;;5.90;;
68275;SDS011;55106;51.438;-0.098;2022-09-20T07:07:59;13.93;;;6.53;;
68275;SDS011;55106;51.438;-0.098;2022-09-20T07:10:25;12.55;;;6.65;;
68275;SDS011;55106;51.438;-0.098;2022-09-20T07:12:56;10.73;;;6.20;;
68275;SDS011;55106;51.438;-0.098;2022-09-20T07:15:23;11.68;;;6.45;;
68275;SDS011;55106;51.438;-0.098;2022-09-20T07:17:49;11.70;;;5.90;;
68275;SDS011;55106;51.438;-0.098;2022-09-20T07:20:15;11.38;;;6.35;;
68275;SDS011;55106;51.438;-0.098;2022-09-20T07:22:41;14.85;;;6.63;;
68275;SDS011;55106;51.438;-0.098;2022-09-20T07:25:06;11.80;;;6.37;;
68275;SDS011;55106;51.438;-0.098;2022-09-20T07:27:32;11.55;;;6.10;;
68275;SDS011;55106;51.438;-0.098;2022-09-20T07:29:57;10.97;;;5.63;;
68275;SDS011;55106;51.438;-0.098;2022-09-20T07:32:23;12.50;;;6.70;;
68275;SDS011;55106;51.438;-0.098;2022-09-20T07:34:48;13.50;;;6.37;;
68275;SDS011;55106;51.438;-0.098;2022-09-20T07:37:15;12.43;;;6.57;;
68275;SDS011;55106;51.438;-0.098;2022-09-20T07:39:41;13.20;;;6.90;;
68275;SDS011;55106;51.438;-0.098;2022-09-20T07:42:06;11.37;;;6.90;;
68275;SDS011;55106;51.438;-0.098;2022-09-20T07:44:32;12.50;;;7.00;;
68275;SDS011;55106;51.438;-0.098;2022-09-20T07:46:58;13.13;;;7.20;;
68275;SDS011;55106;51.438;-0.098;2022-09-20T07:49:24;12.52;;;7.60;;
68275;SDS011;55106;51.438;-0.098;2022-09-20T07:51:51;16.37;;;7.43;;
68275;SDS011;55106;51.438;-0.098;2022-09-20T07:54:18;12.95;;;7.57;;
68275;SDS011;55106;51.438;-0.098;2022-09-20T07:56:43;13.57;;;7.57;;
68275;SDS011;55106;51.438;-0.098;2022-09-20T07:59:09;13.82;;;7.50;;
68275;SDS011;55106;51.438;-0.098;2022-09-20T08:01:35;12.90;;;7.00;;
68275;SDS011;55106;51.438;-0.098;2022-09-20T08:04:03;15.57;;;8.13;;
68275;SDS011;55106;51.438;-0.098;2022-09-20T08:06:29;16.13;;;8.27;;
68275;SDS011;55106;51.438;-0.098;2022-09-20T08:08:55;16.10;;;7.13;;
68275;SDS011;55106;51.438;-0.098;2022-09-20T08:11:21;15.90;;;6.87;;
68275;SDS011;55106;51.438;-0.098;2022-09-20T08:13:53;13.45;;;7.15;;
68275;SDS011;55106;51.438;-0.098;2022-09-20T08:16:20;12.77;;;7.43;;
68275;SDS011;55106;51.438;-0.098;2022-09-20T08:18:46;14.03;;;7.50;;
68275;SDS011;55106;51.438;-0.098;2022-09-20T08:21:13;14.60;;;6.93;;
68275;SDS011;55106;51.438;-0.098;2022-09-20T08:23:40;14.32;;;7.57;;
68275;SDS011;55106;51.438;-0.098;2022-09-20T08:26:09;13.93;;;6.87;;
68275;SDS011;55106;51.438;-0.098;2022-09-20T08:28:38;13.75;;;7.40;;
68275;SDS011;55106;51.438;-0.098;2022-09-20T08:31:07;15.70;;;7.32;;
68275;SDS011;55106;51.438;-0.098;2022-09-20T08:33:38;14.15;;;6.93;;
68275;SDS011;55106;51.438;-0.098;2022-09-20T08:36:04;11.25;;;7.05;;
68275;SDS011;55106;51.438;-0.098;2022-09-20T08:38:30;13.47;;;7.20;;
68275;SDS011;55106;51.438;-0.098;2022-09-20T08:41:01;12.65;;;7.07;;
68275;SDS011;55106;51.438;-0.098;2022-09-20T08:43:42;13.13;;;6.72;;
68275;SDS011;55106;51.438;-0.098;2022-09-20T08:46:30;14.50;;;6.80;;
68275;SDS011;55106;51.438;-0.098;2022-09-20T08:48:59;13.48;;;6.97;;
68275;SDS011;55106;51.438;-0.098;2022-09-20T08:51:28;12.00;;;6.27;;
68275;SDS011;55106;51.438;-0.098;2022-09-20T08:53:56;16.45;;;6.72;;
68275;SDS011;55106;51.438;-0.098;2022-09-20T08:56:22;11.55;;;6.40;;
68275;SDS011;55106;51.438;-0.098;2022-09-20T08:58:52;12.57;;;6.70;;
68275;SDS011;55106;51.438;-0.098;2022-09-20T09:01:22;13.18;;;6.55;;
68275;SDS011;55106;51.438;-0.098;2022-09-20T09:03:49;13.48;;;6.60;;
68275;SDS011;55106;51.438;-0.098;2022-09-20T09:06:17;12.23;;;6.50;;
68275;SDS011;55106;51.438;-0.098;2022-09-20T09:08:44;12.27;;;6.28;;
68275;SDS011;55106;51.438;-0.098;2022-09-20T09:11:18;11.48;;;6.72;;
68275;SDS011;55106;51.438;-0.098;2022-09-20T09:14:04;11.32;;;6.32;;
68275;SDS011;55106;51.438;-0.098;2022-09-20T09:16:54;12.27;;;6.30;;
68275;SDS011;55106;51.438;-0.098;2022-09-20T09:19:30;11.40;;;5.83;;
68275;SDS011;55106;51.438;-0.098;2022-09-20T09:22:06;13.02;;;6.25;;
68275;SDS011;55106;51.438;-0.098;2022-09-20T09:24:32;11.33;;;5.60;;
68275;SDS011;55106;51.438;-0.098;2022-09-20T09:27:11;11.47;;;6.10;;
68275;SDS011;55106;51.438;-0.098;2022-09-20T09:32:20;10.43;;;5.97;;
68275;SDS011;55106;51.438;-0.098;2022-09-20T09:34:53;12.20;;;6.00;;
68275;SDS011;55106;51.438;-0.098;2022-09-20T09:37:24;11.02;;;5.53;;
68275;SDS011;55106;51.438;-0.098;2022-09-20T09:40:17;9.43;;;5.55;;
68275;SDS011;55106;51.438;-0.098;2022-09-20T09:42:49;9.48;;;4.13;;
68275;SDS011;55106;51.438;-0.098;2022-09-20T09:45:37;9.52;;;4.50;;
68275;SDS011;55106;51.438;-0.098;2022-09-20T09:48:15;9.60;;;4.07;;
68275;SDS011;55106;51.438;-0.098;2022-09-20T09:50:41;9.15;;;4.60;;
68275;SDS011;55106;51.438;-0.098;2022-09-20T09:53:20;8.80;;;4.50;;
68275;SDS011;55106;51.438;-0.098;2022-09-20T10:01:31;7.93;;;3.38;;
68275;SDS011;55106;51.438;-0.098;2022-09-20T10:09:49;4.47;;;1.55;;
68275;SDS011;55106;51.438;-0.098;2022-09-20T10:15:19;6.15;;;1.50;;
68275;SDS011;55106;51.438;-0.098;2022-09-20T10:18:09;4.90;;;1.40;;
68275;SDS011;55106;51.438;-0.098;2022-09-20T10:23:27;6.18;;;1.38;;
68275;SDS011;55106;51.438;-0.098;2022-09-20T10:36:55;6.93;;;1.85;;
68275;SDS011;55106;51.438;-0.098;2022-09-20T10:39:32;4.55;;;1.60;;
68275;SDS011;55106;51.438;-0.098;2022-09-20T10:45:06;4.50;;;1.50;;
68275;SDS011;55106;51.438;-0.098;2022-09-20T10:50:52;6.45;;;1.40;;
68275;SDS011;55106;51.438;-0.098;2022-09-20T10:55:45;4.18;;;1.45;;
68275;SDS011;55106;51.438;-0.098;2022-09-20T11:09:07;4.55;;;1.77;;
68275;SDS011;55106;51.438;-0.098;2022-09-20T11:11:41;5.40;;;1.90;;
68275;SDS011;55106;51.438;-0.098;2022-09-20T11:14:18;5.55;;;1.80;;
68275;SDS011;55106;51.438;-0.098;2022-09-20T11:22:30;6.00;;;1.67;;
68275;SDS011;55106;51.438;-0.098;2022-09-20T11:27:41;4.60;;;1.30;;
68275;SDS011;55106;51.438;-0.098;2022-09-20T11:30:19;3.90;;;1.33;;
68275;SDS011;55106;51.438;-0.098;2022-09-20T11:32:54;4.67;;;1.63;;
68275;SDS011;55106;51.438;-0.098;2022-09-20T11:35:30;4.93;;;1.70;;
68275;SDS011;55106;51.438;-0.098;2022-09-20T11:40:45;5.95;;;1.45;;
68275;SDS011;55106;51.438;-0.098;2022-09-20T11:43:24;4.10;;;1.30;;
68275;SDS011;55106;51.438;-0.098;2022-09-20T11:45:54;4.70;;;1.40;;
68275;SDS011;55106;51.438;-0.098;2022-09-20T11:48:28;4.32;;;1.40;;
68275;SDS011;55106;51.438;-0.098;2022-09-20T11:56:26;4.88;;;1.60;;
68275;SDS011;55106;51.438;-0.098;2022-09-20T11:58:56;4.60;;;1.40;;
68275;SDS011;55106;51.438;-0.098;2022-09-20T12:07:07;4.93;;;1.83;;
68275;SDS011;55106;51.438;-0.098;2022-09-20T12:09:42;4.30;;;1.40;;
68275;SDS011;55106;51.438;-0.098;2022-09-20T12:15:00;4.97;;;1.63;;
68275;SDS011;55106;51.438;-0.098;2022-09-20T12:26:08;6.50;;;1.90;;
68275;SDS011;55106;51.438;-0.098;2022-09-20T12:28:48;5.07;;;2.00;;
68275;SDS011;55106;51.438;-0.098;2022-09-20T12:34:03;5.82;;;1.80;;
68275;SDS011;55106;51.438;-0.098;2022-09-20T12:36:35;5.05;;;2.25;;
68275;SDS011;55106;51.438;-0.098;2022-09-20T12:41:54;5.40;;;2.00;;
68275;SDS011;55106;51.438;-0.098;2022-09-20T12:52:32;5.82;;;1.90;;
68275;SDS011;55106;51.438;-0.098;2022-09-20T12:58:23;5.60;;;1.88;;
68275;SDS011;55106;51.438;-0.098;2022-09-20T13:06:33;4.93;;;2.10;;
68275;SDS011;55106;51.438;-0.098;2022-09-20T13:14:24;5.80;;;1.75;;
68275;SDS011;55106;51.438;-0.098;2022-09-20T13:19:56;5.40;;;1.93;;
68275;SDS011;55106;51.438;-0.098;2022-09-20T13:22:25;4.95;;;1.70;;
68275;SDS011;55106;51.438;-0.098;2022-09-20T13:25:00;5.88;;;2.40;;
68275;SDS011;55106;51.438;-0.098;2022-09-20T13:27:32;6.10;;;1.67;;
68275;SDS011;55106;51.438;-0.098;2022-09-20T13:32:41;5.30;;;2.10;;
68275;SDS011;55106;51.438;-0.098;2022-09-20T13:40:21;4.63;;;1.75;;
68275;SDS011;55106;51.438;-0.098;2022-09-20T13:42:51;4.83;;;1.83;;
68275;SDS011;55106;51.438;-0.098;2022-09-20T13:45:18;6.35;;;2.05;;
68275;SDS011;55106;51.438;-0.098;2022-09-20T13:47:50;5.35;;;1.80;;
68275;SDS011;55106;51.438;-0.098;2022-09-20T13:52:53;5.00;;;2.00;;
68275;SDS011;55106;51.438;-0.098;2022-09-20T13:55:30;4.73;;;1.80;;
68275;SDS011;55106;51.438;-0.098;2022-09-20T13:58:01;5.07;;;1.80;;
68275;SDS011;55106;51.438;-0.098;2022-09-20T14:00:32;5.60;;;2.10;;
68275;SDS011;55106;51.438;-0.098;2022-09-20T14:03:02;5.00;;;2.00;;
68275;SDS011;55106;51.438;-0.098;2022-09-20T14:05:28;4.93;;;1.97;;
68275;SDS011;55106;51.438;-0.098;2022-09-20T14:07:55;4.95;;;2.05;;
68275;SDS011;55106;51.438;-0.098;2022-09-20T14:10:35;5.78;;;1.90;;
68275;SDS011;55106;51.438;-0.098;2022-09-20T14:13:06;6.57;;;1.90;;
68275;SDS011;55106;51.438;-0.098;2022-09-20T14:15:36;6.05;;;2.10;;
68275;SDS011;55106;51.438;-0.098;2022-09-20T14:18:05;7.93;;;2.00;;
68275;SDS011;55106;51.438;-0.098;2022-09-20T14:20:33;6.43;;;2.05;;
68275;SDS011;55106;51.438;-0.098;2022-09-20T14:22:59;5.43;;;2.20;;
68275;SDS011;55106;51.438;-0.098;2022-09-20T14:25:25;5.40;;;2.17;;
68275;SDS011;55106;51.438;-0.098;2022-09-20T14:30:49;6.70;;;2.42;;
68275;SDS011;55106;51.438;-0.098;2022-09-20T14:33:16;5.27;;;2.47;;
68275;SDS011;55106;51.438;-0.098;2022-09-20T14:35:53;5.32;;;2.30;;
68275;SDS011;55106;51.438;-0.098;2022-09-20T14:38:23;5.93;;;2.10;;
68275;SDS011;55106;51.438;-0.098;2022-09-20T14:40:50;6.32;;;2.15;;
68275;SDS011;55106;51.438;-0.098;2022-09-20T14:43:24;6.35;;;1.90;;
68275;SDS011;55106;51.438;-0.098;2022-09-20T14:45:54;6.10;;;2.23;;
68275;SDS011;55106;51.438;-0.098;2022-09-20T14:53:46;4.32;;;1.80;;
68275;SDS011;55106;51.438;-0.098;2022-09-20T14:56:16;6.00;;;2.13;;
68275;SDS011;55106;51.438;-0.098;2022-09-20T15:01:28;6.03;;;1.95;;
68275;SDS011;55106;51.438;-0.098;2022-09-20T15:03:57;5.27;;;2.17;;
68275;SDS011;55106;51.438;-0.098;2022-09-20T15:06:23;4.70;;;1.98;;
68275;SDS011;55106;51.438;-0.098;2022-09-20T15:08:49;5.75;;;2.00;;
68275;SDS011;55106;51.438;-0.098;2022-09-20T15:11:15;4.93;;;1.87;;
68275;SDS011;55106;51.438;-0.098;2022-09-20T15:13:42;4.80;;;1.90;;
68275;SDS011;55106;51.438;-0.098;2022-09-20T15:16:07;4.70;;;1.80;;
68275;SDS011;55106;51.438;-0.098;2022-09-20T15:18:41;4.80;;;1.80;;
68275;SDS011;55106;51.438;-0.098;2022-09-20T15:21:08;4.60;;;1.75;;
68275;SDS011;55106;51.438;-0.098;2022-09-20T15:23:36;5.20;;;1.70;;
68275;SDS011;55106;51.438;-0.098;2022-09-20T15:26:03;6.60;;;1.80;;
68275;SDS011;55106;51.438;-0.098;2022-09-20T15:28:29;6.27;;;1.70;;
68275;SDS011;55106;51.438;-0.098;2022-09-20T15:30:56;6.78;;;2.10;;
68275;SDS011;55106;51.438;-0.098;2022-09-20T15:33:22;5.80;;;2.10;;
68275;SDS011;55106;51.438;-0.098;2022-09-20T15:35:48;5.40;;;2.00;;
68275;SDS011;55106;51.438;-0.098;2022-09-20T15:38:15;6.67;;;1.90;;
68275;SDS011;55106;51.438;-0.098;2022-09-20T15:40:45;5.85;;;2.20;;
68275;SDS011;55106;51.438;-0.098;2022-09-20T15:43:13;5.63;;;2.13;;
68275;SDS011;55106;51.438;-0.098;2022-09-20T15:48:17;5.65;;;2.10;;
68275;SDS011;55106;51.438;-0.098;2022-09-20T15:51:04;6.17;;;2.10;;
68275;SDS011;55106;51.438;-0.098;2022-09-20T15:53:32;6.47;;;2.00;;
68275;SDS011;55106;51.438;-0.098;2022-09-20T15:55:59;6.35;;;1.88;;
68275;SDS011;55106;51.438;-0.098;2022-09-20T15:58:29;5.35;;;2.20;;
68275;SDS011;55106;51.438;-0.098;2022-09-20T16:01:06;4.85;;;2.20;;
68275;SDS011;55106;51.438;-0.098;2022-09-20T16:03:33;5.70;;;2.03;;
68275;SDS011;55106;51.438;-0.098;2022-09-20T16:05:59;6.13;;;2.58;;
68275;SDS011;55106;51.438;-0.098;2022-09-20T16:08:37;5.40;;;2.10;;
68275;SDS011;55106;51.438;-0.098;2022-09-20T16:11:04;7.45;;;2.30;;
68275;SDS011;55106;51.438;-0.098;2022-09-20T16:13:31;5.97;;;2.30;;
68275;SDS011;55106;51.438;-0.098;2022-09-20T16:15:59;6.33;;;2.30;;
68275;SDS011;55106;51.438;-0.098;2022-09-20T16:18:26;5.65;;;2.10;;
68275;SDS011;55106;51.438;-0.098;2022-09-20T16:21:11;6.67;;;2.23;;
68275;SDS011;55106;51.438;-0.098;2022-09-20T16:23:39;5.00;;;2.13;;
68275;SDS011;55106;51.438;-0.098;2022-09-20T16:26:05;4.88;;;1.85;;
68275;SDS011;55106;51.438;-0.098;2022-09-20T16:28:37;6.32;;;1.88;;
68275;SDS011;55106;51.438;-0.098;2022-09-20T16:31:03;6.18;;;2.20;;
68275;SDS011;55106;51.438;-0.098;2022-09-20T16:33:29;5.03;;;2.00;;
68275;SDS011;55106;51.438;-0.098;2022-09-20T16:35:57;5.38;;;1.98;;
68275;SDS011;55106;51.438;-0.098;2022-09-20T16:38:22;5.63;;;2.33;;
68275;SDS011;55106;51.438;-0.098;2022-09-20T16:40:48;6.43;;;2.37;;
68275;SDS011;55106;51.438;-0.098;2022-09-20T16:43:16;5.00;;;2.17;;
68275;SDS011;55106;51.438;-0.098;2022-09-20T16:45:47;5.50;;;2.15;;
68275;SDS011;55106;51.438;-0.098;2022-09-20T16:48:12;6.60;;;2.20;;
68275;SDS011;55106;51.438;-0.098;2022-09-20T16:50:38;5.53;;;2.20;;
68275;SDS011;55106;51.438;-0.098;2022-09-20T16:53:03;8.30;;;2.27;;
68275;SDS011;55106;51.438;-0.098;2022-09-20T16:55:28;6.05;;;2.10;;
68275;SDS011;55106;51.438;-0.098;2022-09-20T16:57:54;5.83;;;2.20;;
68275;SDS011;55106;51.438;-0.098;2022-09-20T17:00:20;5.77;;;2.20;;
68275;SDS011;55106;51.438;-0.098;2022-09-20T17:02:49;6.03;;;2.20;;
68275;SDS011;55106;51.438;-0.098;2022-09-20T17:05:15;6.55;;;2.45;;
68275;SDS011;55106;51.438;-0.098;2022-09-20T17:07:40;5.10;;;2.10;;
68275;SDS011;55106;51.438;-0.098;2022-09-20T17:10:07;5.77;;;2.10;;
68275;SDS011;55106;51.438;-0.098;2022-09-20T17:12:33;6.32;;;2.40;;
68275;SDS011;55106;51.438;-0.098;2022-09-20T17:15:05;5.90;;;2.30;;
68275;SDS011;55106;51.438;-0.098;2022-09-20T17:17:37;6.10;;;2.20;;
68275;SDS011;55106;51.438;-0.098;2022-09-20T17:20:03;6.33;;;2.10;;
68275;SDS011;55106;51.438;-0.098;2022-09-20T17:22:30;6.17;;;2.30;;
68275;SDS011;55106;51.438;-0.098;2022-09-20T17:24:55;5.53;;;2.10;;
68275;SDS011;55106;51.438;-0.098;2022-09-20T17:27:21;6.60;;;2.37;;
68275;SDS011;55106;51.438;-0.098;2022-09-20T17:29:48;5.20;;;2.30;;
68275;SDS011;55106;51.438;-0.098;2022-09-20T17:32:13;5.53;;;2.30;;
68275;SDS011;55106;51.438;-0.098;2022-09-20T17:34:39;6.63;;;2.40;;
68275;SDS011;55106;51.438;-0.098;2022-09-20T17:37:04;5.50;;;2.20;;
68275;SDS011;55106;51.438;-0.098;2022-09-20T17:39:30;6.37;;;2.23;;
68275;SDS011;55106;51.438;-0.098;2022-09-20T17:41:55;5.85;;;2.83;;
68275;SDS011;55106;51.438;-0.098;2022-09-20T17:44:21;5.87;;;2.87;;
68275;SDS011;55106;51.438;-0.098;2022-09-20T17:46:47;5.97;;;2.70;;
68275;SDS011;55106;51.438;-0.098;2022-09-20T17:49:17;6.00;;;2.40;;
68275;SDS011;55106;51.438;-0.098;2022-09-20T17:51:45;5.55;;;2.38;;
68275;SDS011;55106;51.438;-0.098;2022-09-20T17:54:12;5.88;;;2.30;;
68275;SDS011;55106;51.438;-0.098;2022-09-20T17:56:42;7.30;;;2.28;;
68275;SDS011;55106;51.438;-0.098;2022-09-20T17:59:09;6.70;;;2.70;;
68275;SDS011;55106;51.438;-0.098;2022-09-20T18:01:35;5.80;;;2.33;;
68275;SDS011;55106;51.438;-0.098;2022-09-20T18:04:02;6.93;;;2.40;;
68275;SDS011;55106;51.438;-0.098;2022-09-20T18:06:31;8.00;;;2.70;;
68275;SDS011;55106;51.438;-0.098;2022-09-20T18:09:00;7.55;;;2.95;;
68275;SDS011;55106;51.438;-0.098;2022-09-20T18:11:31;7.15;;;2.75;;
68275;SDS011;55106;51.438;-0.098;2022-09-20T18:13:59;6.27;;;2.73;;
68275;SDS011;55106;51.438;-0.098;2022-09-20T18:16:25;6.30;;;2.72;;
68275;SDS011;55106;51.438;-0.098;2022-09-20T18:18:51;6.03;;;3.10;;
68275;SDS011;55106;51.438;-0.098;2022-09-20T18:21:17;7.60;;;2.75;;
68275;SDS011;55106;51.438;-0.098;2022-09-20T18:23:44;7.03;;;2.67;;
68275;SDS011;55106;51.438;-0.098;2022-09-20T18:26:12;7.47;;;2.95;;
68275;SDS011;55106;51.438;-0.098;2022-09-20T18:29:01;6.18;;;2.50;;
68275;SDS011;55106;51.438;-0.098;2022-09-20T18:33:57;7.50;;;3.13;;
68275;SDS011;55106;51.438;-0.098;2022-09-20T18:36:25;6.77;;;2.90;;
68275;SDS011;55106;51.438;-0.098;2022-09-20T18:38:52;5.88;;;2.92;;
68275;SDS011;55106;51.438;-0.098;2022-09-20T18:41:19;7.15;;;3.00;;
68275;SDS011;55106;51.438;-0.098;2022-09-20T18:43:55;7.38;;;2.60;;
68275;SDS011;55106;51.438;-0.098;2022-09-20T18:46:22;7.17;;;3.13;;
68275;SDS011;55106;51.438;-0.098;2022-09-20T18:48:52;6.55;;;2.75;;
68275;SDS011;55106;51.438;-0.098;2022-09-20T18:51:19;6.40;;;2.80;;
68275;SDS011;55106;51.438;-0.098;2022-09-20T18:53:45;6.55;;;2.67;;
68275;SDS011;55106;51.438;-0.098;2022-09-20T18:58:43;7.30;;;3.07;;
68275;SDS011;55106;51.438;-0.098;2022-09-20T19:06:40;7.25;;;3.00;;
68275;SDS011;55106;51.438;-0.098;2022-09-20T19:11:59;8.75;;;3.20;;
68275;SDS011;55106;51.438;-0.098;2022-09-20T19:14:33;6.90;;;3.13;;
68275;SDS011;55106;51.438;-0.098;2022-09-20T19:17:10;5.82;;;2.90;;
68275;SDS011;55106;51.438;-0.098;2022-09-20T19:19:48;6.82;;;2.80;;
68275;SDS011;55106;51.438;-0.098;2022-09-20T19:25:14;6.82;;;3.03;;
68275;SDS011;55106;51.438;-0.098;2022-09-20T19:27:47;6.63;;;3.20;;
68275;SDS011;55106;51.438;-0.098;2022-09-20T19:30:14;7.80;;;3.55;;
68275;SDS011;55106;51.438;-0.098;2022-09-20T19:32:41;7.25;;;3.55;;
68275;SDS011;55106;51.438;-0.098;2022-09-20T19:35:13;7.00;;;3.50;;
68275;SDS011;55106;51.438;-0.098;2022-09-20T19:40:52;8.88;;;3.55;;
68275;SDS011;55106;51.438;-0.098;2022-09-20T19:43:17;7.47;;;3.47;;
68275;SDS011;55106;51.438;-0.098;2022-09-20T19:46:12;7.97;;;3.40;;
68275;SDS011;55106;51.438;-0.098;2022-09-20T19:49:27;6.80;;;3.40;;
68275;SDS011;55106;51.438;-0.098;2022-09-20T19:51:34;6.72;;;3.40;;
68275;SDS011;55106;51.438;-0.098;2022-09-20T19:54:01;9.35;;;3.47;;
68275;SDS011;55106;51.438;-0.098;2022-09-20T19:56:27;9.10;;;4.30;;
68275;SDS011;55106;51.438;-0.098;2022-09-20T19:58:56;9.13;;;4.10;;
68275;SDS011;55106;51.438;-0.098;2022-09-20T20:01:22;7.90;;;4.32;;
68275;SDS011;55106;51.438;-0.098;2022-09-20T20:03:49;10.10;;;4.50;;
68275;SDS011;55106;51.438;-0.098;2022-09-20T20:16:59;8.48;;;3.90;;
68275;SDS011;55106;51.438;-0.098;2022-09-20T20:28:01;9.10;;;4.22;;
68275;SDS011;55106;51.438;-0.098;2022-09-20T20:30:26;9.70;;;4.33;;
68275;SDS011;55106;51.438;-0.098;2022-09-20T20:32:53;10.57;;;4.45;;
68275;SDS011;55106;51.438;-0.098;2022-09-20T20:35:22;9.00;;;4.40;;
68275;SDS011;55106;51.438;-0.098;2022-09-20T20:37:47;10.50;;;4.30;;
68275;SDS011;55106;51.438;-0.098;2022-09-20T20:40:13;9.82;;;4.20;;
68275;SDS011;55106;51.438;-0.098;2022-09-20T20:42:39;9.37;;;4.20;;
68275;SDS011;55106;51.438;-0.098;2022-09-20T20:45:06;11.68;;;4.43;;
68275;SDS011;55106;51.438;-0.098;2022-09-20T20:47:32;7.82;;;4.60;;
68275;SDS011;55106;51.438;-0.098;2022-09-20T20:49:58;10.73;;;4.38;;
68275;SDS011;55106;51.438;-0.098;2022-09-20T20:52:23;8.03;;;3.93;;
68275;SDS011;55106;51.438;-0.098;2022-09-20T20:54:49;8.83;;;4.37;;
68275;SDS011;55106;51.438;-0.098;2022-09-20T20:57:14;8.73;;;4.40;;
68275;SDS011;55106;51.438;-0.098;2022-09-20T20:59:43;11.65;;;5.22;;
68275;SDS011;55106;51.438;-0.098;2022-09-20T21:02:09;14.10;;;7.85;;
68275;SDS011;55106;51.438;-0.098;2022-09-20T21:04:34;16.50;;;9.80;;
68275;SDS011;55106;51.438;-0.098;2022-09-20T21:07:01;17.60;;;9.32;;